Wetterstation Vordersexau
Wetterdaten: Woche 22.08.16 - 28.08.16 (KW34)
Datum Zeit Temp. A. Feuchte A. Luftdruck Regen Wind Richtung Taupunkt Windchill Windben
22.08.2016 00:00 12,7 C 80 % 1024,1 hPa 0,0 l/m 0,0 km/h S 9,3 C 12,7 C 0,0 km/h
22.08.2016 01:00 12,9 C 81 % 1024,0 hPa 0,0 l/m 0,0 km/h S-SO 9,7 C 12,9 C 0,0 km/h
22.08.2016 02:00 12,2 C 82 % 1024,2 hPa 0,0 l/m 0,0 km/h S-SO 9,2 C 12,2 C 0,0 km/h
22.08.2016 03:00 12,3 C 83 % 1024,2 hPa 0,0 l/m 0,0 km/h S-SO 9,5 C 12,3 C 0,0 km/h
22.08.2016 04:00 12,3 C 83 % 1024,2 hPa 0,0 l/m 0,0 km/h O-SO 9,5 C 12,3 C 0,0 km/h
22.08.2016 05:00 12,2 C 84 % 1024,5 hPa 0,0 l/m 0,0 km/h SO 9,6 C 12,2 C 0,0 km/h
22.08.2016 06:00 12,3 C 83 % 1025,0 hPa 0,0 l/m 0,0 km/h O-SO 9,5 C 12,3 C 0,0 km/h
22.08.2016 07:00 12,6 C 83 % 1025,6 hPa 0,0 l/m 0,0 km/h SO 9,8 C 12,6 C 0,0 km/h
22.08.2016 08:00 19,9 C 71 % 1025,6 hPa 0,0 l/m 3,2 km/h W 14,5 C 19,9 C 1,8 km/h
22.08.2016 09:00 24,9 C 51 % 1026,1 hPa 0,0 l/m 0,0 km/h W 14,1 C 24,9 C 0,0 km/h
22.08.2016 10:00 26,1 C 47 % 1026,1 hPa 0,0 l/m 0,0 km/h S 13,9 C 26,1 C 0,0 km/h
22.08.2016 11:00 25,6 C 45 % 1026,1 hPa 0,0 l/m 0,0 km/h W-NW 12,8 C 25,6 C 0,0 km/h
22.08.2016 12:00 26,1 C 42 % 1025,9 hPa 0,0 l/m 0,0 km/h W-NW 12,2 C 26,1 C 0,0 km/h
22.08.2016 13:00 27,9 C 39 % 1025,8 hPa 0,0 l/m 5,2 km/h N-NO 12,6 C 27,9 C 2,9 km/h
22.08.2016 14:00 26,7 C 42 % 1025,5 hPa 0,0 l/m 0,0 km/h W-NW 12,7 C 26,7 C 0,0 km/h
22.08.2016 15:00 27,7 C 40 % 1025,5 hPa 0,0 l/m 0,0 km/h N-NO 12,9 C 27,7 C 0,0 km/h
22.08.2016 16:00 29,6 C 38 % 1025,3 hPa 0,0 l/m 0,0 km/h N-NO 13,8 C 29,6 C 0,0 km/h
22.08.2016 17:00 33,1 C 34 % 1025,1 hPa 0,0 l/m 0,0 km/h W-NW 15,1 C 33,1 C 0,0 km/h
22.08.2016 18:00 32,9 C 33 % 1024,9 hPa 0,0 l/m 1,3 km/h NW 14,5 C 32,9 C 0,7 km/h
22.08.2016 19:00 25,3 C 45 % 1025,2 hPa 0,0 l/m 1,9 km/h N-NW 12,5 C 25,3 C 1,1 km/h
22.08.2016 20:00 18,4 C 65 % 1025,3 hPa 0,0 l/m 0,0 km/h SO 11,7 C 18,4 C 0,0 km/h
22.08.2016 21:00 16,9 C 73 % 1025,7 hPa 0,0 l/m 0,0 km/h SO 12,0 C 16,9 C 0,0 km/h
22.08.2016 22:00 16,1 C 76 % 1025,6 hPa 0,0 l/m 0,0 km/h SO 11,9 C 16,1 C 0,0 km/h
22.08.2016 23:00 14,7 C 79 % 1025,5 hPa 0,0 l/m 0,0 km/h SO 11,1 C 14,7 C 0,0 km/h
23.08.2016 00:00 14,5 C 81 % 1025,3 hPa 0,0 l/m 3,2 km/h NO 11,3 C 14,5 C 1,8 km/h
23.08.2016 01:00 14,4 C 82 % 1025,3 hPa 0,0 l/m 0,0 km/h O-SO 11,4 C 14,4 C 0,0 km/h
23.08.2016 02:00 13,9 C 82 % 1024,9 hPa 0,0 l/m 0,0 km/h NO 10,9 C 13,9 C 0,0 km/h
23.08.2016 03:00 13,2 C 83 % 1024,8 hPa 0,0 l/m 0,0 km/h NO 10,4 C 13,2 C 0,0 km/h
23.08.2016 04:00 13,0 C 83 % 1024,6 hPa 0,0 l/m 0,0 km/h NO 10,2 C 13,0 C 0,0 km/h
23.08.2016 05:00 11,6 C 84 % 1024,7 hPa 0,0 l/m 0,0 km/h NO 9,0 C 11,6 C 0,0 km/h
23.08.2016 06:00 11,7 C 84 % 1025,2 hPa 0,0 l/m 0,0 km/h NO 9,1 C 11,7 C 0,0 km/h
23.08.2016 07:00 13,2 C 83 % 1025,2 hPa 0,0 l/m 0,0 km/h S-SW 10,4 C 13,2 C 0,0 km/h
23.08.2016 08:00 22,1 C 72 % 1025,3 hPa 0,0 l/m 0,0 km/h W 16,8 C 22,1 C 0,0 km/h
23.08.2016 09:00 25,1 C 58 % 1025,1 hPa 0,0 l/m 0,0 km/h W 16,2 C 25,1 C 0,0 km/h
23.08.2016 10:00 27,4 C 51 % 1024,8 hPa 0,0 l/m 2,6 km/h W-NW 16,3 C 27,4 C 1,4 km/h
23.08.2016 11:00 27,2 C 52 % 1024,2 hPa 0,0 l/m 0,6 km/h N-NO 16,5 C 27,2 C 0,4 km/h
23.08.2016 12:00 28,9 C 49 % 1023,6 hPa 0,0 l/m 8,4 km/h W-NW 17,1 C 28,6 C 4,7 km/h
23.08.2016 13:00 30,4 C 49 % 1023,0 hPa 0,0 l/m 7,8 km/h W 18,5 C 30,3 C 4,3 km/h
23.08.2016 14:00 31,8 C 47 % 1022,2 hPa 0,0 l/m 2,6 km/h N 19,1 C 31,8 C 1,4 km/h
23.08.2016 15:00 32,9 C 45 % 1021,4 hPa 0,0 l/m 14,3 km/h N-NO 19,4 C 32,9 C 7,9 km/h
23.08.2016 16:00 34,7 C 41 % 1021,3 hPa 0,0 l/m 3,9 km/h N 19,5 C 34,7 C 2,2 km/h
23.08.2016 17:00 36,9 C 37 % 1020,7 hPa 0,0 l/m 0,0 km/h N 19,8 C 36,9 C 0,0 km/h
23.08.2016 18:00 36,8 C 37 % 1020,5 hPa 0,0 l/m 3,2 km/h W-NW 19,7 C 36,8 C 1,8 km/h
23.08.2016 19:00 29,6 C 48 % 1020,5 hPa 0,0 l/m 0,0 km/h W-NW 17,4 C 29,6 C 0,0 km/h
23.08.2016 20:00 22,4 C 66 % 1020,4 hPa 0,0 l/m 0,0 km/h W-NW 15,7 C 22,4 C 0,0 km/h
23.08.2016 21:00 20,2 C 75 % 1020,9 hPa 0,0 l/m 0,0 km/h O-SO 15,6 C 20,2 C 0,0 km/h
23.08.2016 22:00 18,2 C 79 % 1021,0 hPa 0,0 l/m 0,0 km/h O-SO 14,5 C 18,2 C 0,0 km/h
23.08.2016 23:00 17,1 C 82 % 1021,0 hPa 0,0 l/m 0,0 km/h O-NO 14,0 C 17,1 C 0,0 km/h
24.08.2016 00:00 16,5 C 82 % 1020,5 hPa 0,0 l/m 0,0 km/h NO 13,4 C 16,5 C 0,0 km/h
24.08.2016 01:00 15,9 C 83 % 1020,2 hPa 0,0 l/m 0,0 km/h NO 13,0 C 15,9 C 0,0 km/h
24.08.2016 02:00 14,9 C 83 % 1019,9 hPa 0,0 l/m 0,0 km/h NO 12,0 C 14,9 C 0,0 km/h
24.08.2016 03:00 13,8 C 84 % 1020,0 hPa 0,0 l/m 0,0 km/h O 11,1 C 13,8 C 0,0 km/h
24.08.2016 04:00 13,9 C 83 % 1019,8 hPa 0,0 l/m 0,0 km/h NO 11,1 C 13,9 C 0,0 km/h
24.08.2016 05:00 13,3 C 83 % 1019,8 hPa 0,0 l/m 0,0 km/h NO 10,5 C 13,3 C 0,0 km/h
24.08.2016 06:00 12,9 C 83 % 1019,9 hPa 0,0 l/m 0,0 km/h NO 10,1 C 12,9 C 0,0 km/h
24.08.2016 07:00 14,1 C 82 % 1020,4 hPa 0,0 l/m 0,0 km/h NO 11,1 C 14,1 C 0,0 km/h
24.08.2016 08:00 23,6 C 75 % 1020,5 hPa 0,0 l/m 0,0 km/h NO 18,9 C 23,6 C 0,0 km/h
24.08.2016 09:00 28,1 C 56 % 1020,1 hPa 0,0 l/m 0,0 km/h N 18,5 C 28,1 C 0,0 km/h
24.08.2016 10:00 29,9 C 48 % 1019,8 hPa 0,0 l/m 0,0 km/h N 17,7 C 29,9 C 0,0 km/h
24.08.2016 11:00 29,1 C 50 % 1019,4 hPa 0,0 l/m 0,0 km/h W 17,6 C 29,1 C 0,0 km/h
24.08.2016 12:00 31,7 C 47 % 1018,7 hPa 0,0 l/m 2,6 km/h W-NW 19,0 C 31,7 C 1,4 km/h
24.08.2016 13:00 32,8 C 45 % 1018,2 hPa 0,0 l/m 8,4 km/h NW 19,3 C 32,8 C 4,7 km/h
24.08.2016 14:00 33,9 C 44 % 1017,8 hPa 0,0 l/m 7,8 km/h W 19,9 C 33,9 C 4,3 km/h
24.08.2016 15:00 34,4 C 45 % 1017,0 hPa 0,0 l/m 0,0 km/h NW 20,7 C 34,4 C 0,0 km/h
24.08.2016 16:00 37,2 C 39 % 1016,6 hPa 0,0 l/m 0,0 km/h NW 20,9 C 37,2 C 0,0 km/h
24.08.2016 17:00 37,3 C 37 % 1016,2 hPa 0,0 l/m 7,1 km/h W-NW 20,1 C 37,3 C 4,0 km/h
24.08.2016 18:00 37,9 C 37 % 1015,8 hPa 0,0 l/m 1,3 km/h W 20,6 C 37,9 C 0,7 km/h
24.08.2016 19:00 31,3 C 46 % 1015,9 hPa 0,0 l/m 0,0 km/h S 18,3 C 31,3 C 0,0 km/h
24.08.2016 20:00 24,4 C 67 % 1016,4 hPa 0,0 l/m 0,0 km/h O-SO 17,9 C 24,4 C 0,0 km/h
24.08.2016 21:00 22,4 C 73 % 1016,6 hPa 0,0 l/m 0,0 km/h NO 17,3 C 22,4 C 0,0 km/h
24.08.2016 22:00 19,9 C 79 % 1016,3 hPa 0,0 l/m 0,0 km/h O 16,1 C 19,9 C 0,0 km/h
24.08.2016 23:00 18,4 C 81 % 1016,3 hPa 0,0 l/m 0,0 km/h N-NW 15,1 C 18,4 C 0,0 km/h
25.08.2016 00:00 18,9 C 80 % 1015,8 hPa 0,0 l/m 0,0 km/h O-SO 15,4 C 18,9 C 0,0 km/h
25.08.2016 01:00 19,6 C 72 % 1015,8 hPa 0,0 l/m 0,0 km/h SO 14,4 C 19,6 C 0,0 km/h
25.08.2016 02:00 16,8 C 78 % 1015,8 hPa 0,0 l/m 0,0 km/h O-SO 12,9 C 16,8 C 0,0 km/h
25.08.2016 03:00 15,9 C 81 % 1015,8 hPa 0,0 l/m 0,0 km/h NO 12,6 C 15,9 C 0,0 km/h
25.08.2016 04:00 14,7 C 83 % 1015,5 hPa 0,0 l/m 0,0 km/h O-SO 11,8 C 14,7 C 0,0 km/h
25.08.2016 05:00 14,1 C 83 % 1015,6 hPa 0,0 l/m 0,0 km/h O-SO 11,3 C 14,1 C 0,0 km/h
25.08.2016 06:00 13,4 C 83 % 1015,8 hPa 0,0 l/m 0,0 km/h O 10,6 C 13,4 C 0,0 km/h
25.08.2016 07:00 14,6 C 83 % 1016,2 hPa 0,0 l/m 0,0 km/h SO 11,7 C 14,6 C 0,0 km/h
25.08.2016 08:00 23,4 C 71 % 1016,0 hPa 0,0 l/m 1,3 km/h NO 17,8 C 23,4 C 0,7 km/h
25.08.2016 09:00 29,4 C 51 % 1016,0 hPa 0,0 l/m 0,0 km/h N 18,2 C 29,4 C 0,0 km/h
25.08.2016 10:00 31,9 C 46 % 1016,1 hPa 0,0 l/m 3,9 km/h O-SO 18,8 C 31,9 C 2,2 km/h
25.08.2016 11:00 31,1 C 48 % 1015,6 hPa 0,0 l/m 0,0 km/h SO 18,8 C 31,1 C 0,0 km/h
25.08.2016 12:00 33,3 C 44 % 1014,9 hPa 0,0 l/m 2,6 km/h N-NO 19,4 C 33,3 C 1,4 km/h
25.08.2016 13:00 35,5 C 39 % 1014,4 hPa 0,0 l/m 0,0 km/h W 19,4 C 35,5 C 0,0 km/h
25.08.2016 14:00 36,5 C 34 % 1014,0 hPa 0,0 l/m 0,0 km/h W 18,1 C 36,5 C 0,0 km/h
25.08.2016 15:00 36,9 C 31 % 1013,7 hPa 0,0 l/m 1,9 km/h W 16,9 C 36,9 C 1,1 km/h
25.08.2016 16:00 40,1 C 27 % 1013,2 hPa 0,0 l/m 0,0 km/h NW 17,5 C 40,1 C 0,0 km/h
25.08.2016 17:00 41,9 C 24 % 1012,7 hPa 0,0 l/m 0,0 km/h W 17,1 C 41,9 C 0,0 km/h
25.08.2016 18:00 40,1 C 25 % 1012,7 hPa 0,0 l/m 0,0 km/h W-NW 16,3 C 40,1 C 0,0 km/h
25.08.2016 19:00 33,3 C 35 % 1012,9 hPa 0,0 l/m 0,0 km/h W-NW 15,7 C 33,3 C 0,0 km/h
25.08.2016 20:00 23,6 C 56 % 1013,3 hPa 0,0 l/m 0,0 km/h W-NW 14,3 C 23,6 C 0,0 km/h
25.08.2016 21:00 21,3 C 66 % 1013,3 hPa 0,0 l/m 0,0 km/h W-NW 14,7 C 21,3 C 0,0 km/h
25.08.2016 22:00 19,7 C 72 % 1013,5 hPa 0,0 l/m 0,0 km/h W-NW 14,5 C 19,7 C 0,0 km/h
25.08.2016 23:00 19,5 C 73 % 1013,5 hPa 0,0 l/m 0,0 km/h NW 14,5 C 19,5 C 0,0 km/h
26.08.2016 00:00 18,6 C 76 % 1013,5 hPa 0,0 l/m 0,0 km/h NW 14,3 C 18,6 C 0,0 km/h
26.08.2016 01:00 17,9 C 78 % 1013,7 hPa 0,0 l/m 0,0 km/h NW 14,0 C 17,9 C 0,0 km/h
26.08.2016 02:00 16,9 C 80 % 1013,7 hPa 0,0 l/m 0,0 km/h NW 13,4 C 16,9 C 0,0 km/h
26.08.2016 03:00 16,3 C 82 % 1014,0 hPa 0,0 l/m 0,0 km/h NW 13,2 C 16,3 C 0,0 km/h
26.08.2016 04:00 15,6 C 83 % 1014,3 hPa 0,0 l/m 0,0 km/h NW 12,7 C 15,6 C 0,0 km/h
26.08.2016 05:00 15,6 C 83 % 1014,5 hPa 0,0 l/m 0,0 km/h NW 12,7 C 15,6 C 0,0 km/h
26.08.2016 06:00 15,8 C 83 % 1014,8 hPa 0,0 l/m 0,0 km/h NW 12,9 C 15,8 C 0,0 km/h
26.08.2016 07:00 17,3 C 83 % 1015,2 hPa 0,0 l/m 0,0 km/h SO 14,4 C 17,3 C 0,0 km/h
26.08.2016 08:00 24,5 C 73 % 1015,1 hPa 0,0 l/m 0,0 km/h NO 19,3 C 24,5 C 0,0 km/h
26.08.2016 09:00 30,8 C 54 % 1015,2 hPa 0,0 l/m 0,0 km/h W 20,4 C 30,8 C 0,0 km/h
26.08.2016 10:00 34,4 C 44 % 1015,4 hPa 0,0 l/m 0,0 km/h W-NW 20,3 C 34,4 C 0,0 km/h
26.08.2016 11:00 33,4 C 46 % 1015,3 hPa 0,0 l/m 0,0 km/h W-NW 20,2 C 33,4 C 0,0 km/h
26.08.2016 12:00 36,4 C 40 % 1014,9 hPa 0,0 l/m 5,8 km/h SW 20,6 C 36,4 C 3,2 km/h
26.08.2016 13:00 37,6 C 37 % 1014,7 hPa 0,0 l/m 7,8 km/h W 20,4 C 37,6 C 4,3 km/h
26.08.2016 14:00 39,3 C 30 % 1014,4 hPa 0,0 l/m 0,0 km/h W 18,5 C 39,3 C 0,0 km/h
26.08.2016 15:00 38,8 C 30 % 1014,1 hPa 0,0 l/m 3,9 km/h NW 18,0 C 38,8 C 2,2 km/h
26.08.2016 16:00 41,5 C 24 % 1014,0 hPa 0,0 l/m 5,2 km/h NW 16,8 C 41,5 C 2,9 km/h
26.08.2016 17:00 41,5 C 24 % 1013,7 hPa 0,0 l/m 5,2 km/h NW 16,8 C 41,5 C 2,9 km/h
26.08.2016 18:00 41,5 C 24 % 1013,6 hPa 0,0 l/m 5,2 km/h N-NO 16,8 C 41,5 C 2,9 km/h
26.08.2016 19:00 33,6 C 38 % 1013,8 hPa 0,0 l/m 0,0 km/h O 17,3 C 33,6 C 0,0 km/h
26.08.2016 20:00 24,6 C 55 % 1014,4 hPa 0,0 l/m 0,0 km/h O-NO 14,9 C 24,6 C 0,0 km/h
26.08.2016 21:00 22,4 C 63 % 1014,7 hPa 0,0 l/m 0,0 km/h O-NO 15,0 C 22,4 C 0,0 km/h
26.08.2016 22:00 21,2 C 66 % 1014,8 hPa 0,0 l/m 0,0 km/h NO 14,6 C 21,2 C 0,0 km/h
26.08.2016 23:00 20,7 C 69 % 1014,9 hPa 0,0 l/m 0,0 km/h NO 14,8 C 20,7 C 0,0 km/h
27.08.2016 00:00 19,6 C 73 % 1014,8 hPa 0,0 l/m 0,0 km/h NO 14,6 C 19,6 C 0,0 km/h
27.08.2016 01:00 18,6 C 77 % 1014,9 hPa 0,0 l/m 0,0 km/h NO 14,5 C 18,6 C 0,0 km/h
27.08.2016 02:00 18,4 C 78 % 1015,2 hPa 0,0 l/m 0,0 km/h O-SO 14,5 C 18,4 C 0,0 km/h
27.08.2016 03:00 18,3 C 79 % 1015,1 hPa 0,0 l/m 0,0 km/h N-NO 14,6 C 18,3 C 0,0 km/h
27.08.2016 04:00 17,5 C 81 % 1015,2 hPa 0,0 l/m 0,0 km/h N-NO 14,2 C 17,5 C 0,0 km/h
27.08.2016 05:00 16,5 C 82 % 1015,0 hPa 0,0 l/m 0,0 km/h N 13,4 C 16,5 C 0,0 km/h
Min-Datum _ 23.08.16 25.08.16 25.08.16 - 22.08.16 - 23.08.16 23.08.16 22.08.16
_ Min-Zeit 05:55 17:55 17:55 - 00:55 - 05:55 05:55 00:55
Minimum _ 11,6 C 24 % 1012,7 hPa - 0,0 km/h - 9,0 C 11,6 C 0,0 km/h
Max-Datum _ 25.08.16 22.08.16 22.08.16 22.08.16 23.08.16 - 24.08.16 25.08.16 23.08.16
_ Max-Zeit 17:55 05:55 09:55 00:55 15:55 - 16:55 17:55 15:55
Maximum _ 41,9 C 84 % 1026,1 hPa 0,0 l/m 14,3 km/h
N-NO
- 20,9 C 41,9 C 7,9 km/h
N-NO
Durchschnitt _ 23,9 C 62 % 1019,0 hPa #0,0 l/m 1,0 km/h NO 14,9 C 23,9 C 0,6 km/h
www.sexauwetter.de